Time;durP1;ratioP1;P1;durP2;ratioP2;P2;SDS_P1;SDS_P2;PMS_P1;PMS_P2;Temp;Humidity;BMP_temperature;BMP_pressure;BME280_temperature;BME280_humidity;BME280_pressure;Samples;Min_cycle;Max_cycle;Signal;HPM_P1;HPM_P2
2023/09/28 00:01:45;;;;;;;18.35;10.50;;;;;;;;;;4960815;28;20039;-79
2023/09/28 00:04:10;;;;;;;19.38;10.43;;;;;;;;;;4959673;29;20035;-79
2023/09/28 00:06:36;;;;;;;15.27;9.95;;;;;;;;;;4960492;28;20046;-79
2023/09/28 00:09:02;;;;;;;15.75;9.82;;;;;;;;;;4926824;29;20027;-80
2023/09/28 00:11:30;;;;;;;17.73;10.00;;;;;;;;;;4955854;28;20054;-80
2023/09/28 00:13:55;;;;;;;15.85;9.80;;;;;;;;;;4960795;28;20102;-80
2023/09/28 00:16:20;;;;;;;14.55;9.27;;;;;;;;;;4960915;28;20105;-81
2023/09/28 00:18:46;;;;;;;14.55;9.98;;;;;;;;;;4962620;29;20031;-80
2023/09/28 00:21:11;;;;;;;18.58;9.57;;;;;;;;;;4961721;28;20058;-80
2023/09/28 00:23:37;;;;;;;21.45;9.95;;;;;;;;;;4960507;28;20030;-81
2023/09/28 00:26:02;;;;;;;17.27;9.35;;;;;;;;;;4942383;29;20055;-79
2023/09/28 00:28:28;;;;;;;14.82;8.88;;;;;;;;;;4907235;29;20044;-81
2023/09/28 00:30:54;;;;;;;16.33;9.15;;;;;;;;;;4970692;28;20552;-80
2023/09/28 00:33:19;;;;;;;16.05;9.48;;;;;;;;;;4938942;29;20507;-81
2023/09/28 00:35:54;;;;;;;13.65;8.45;;;;;;;;;;4939340;29;20413;-80
2023/09/28 00:38:22;;;;;;;15.23;9.65;;;;;;;;;;4941404;29;20071;-79
2023/09/28 00:40:48;;;;;;;15.13;9.73;;;;;;;;;;4942106;28;20086;-79
2023/09/28 00:43:14;;;;;;;15.20;8.82;;;;;;;;;;4957480;28;20113;-80
2023/09/28 00:45:39;;;;;;;14.52;9.95;;;;;;;;;;4960022;29;20565;-79
2023/09/28 00:48:06;;;;;;;19.10;9.30;;;;;;;;;;4973508;28;20542;-80
2023/09/28 00:50:32;;;;;;;15.45;9.80;;;;;;;;;;4955767;29;20061;-81
2023/09/28 00:52:59;;;;;;;15.75;9.95;;;;;;;;;;4954868;29;20043;-80
2023/09/28 00:55:25;;;;;;;18.58;9.63;;;;;;;;;;4954486;29;20109;-80
2023/09/28 00:57:54;;;;;;;19.90;9.65;;;;;;;;;;4953639;29;20110;-78
2023/09/28 01:00:28;;;;;;;16.77;9.05;;;;;;;;;;4944555;29;20039;-80
2023/09/28 01:02:55;;;;;;;15.30;9.30;;;;;;;;;;4971263;28;20031;-81
2023/09/28 01:05:26;;;;;;;18.60;9.38;;;;;;;;;;4959263;29;20035;-80
2023/09/28 01:07:52;;;;;;;19.40;9.52;;;;;;;;;;4957892;29;20055;-80
2023/09/28 01:10:29;;;;;;;14.23;9.60;;;;;;;;;;4943517;29;20039;-79
2023/09/28 01:12:58;;;;;;;17.85;9.52;;;;;;;;;;4944470;29;20403;-79
2023/09/28 01:15:24;;;;;;;17.63;9.07;;;;;;;;;;4959541;29;20031;-79
2023/09/28 01:17:52;;;;;;;18.95;9.50;;;;;;;;;;4957497;29;20047;-80
2023/09/28 01:20:38;;;;;;;15.95;9.30;;;;;;;;;;4960378;28;20031;-80
2023/09/28 01:23:04;;;;;;;21.25;9.82;;;;;;;;;;4956468;28;20126;-81
2023/09/28 01:25:30;;;;;;;16.98;9.52;;;;;;;;;;4939360;29;20035;-79
2023/09/28 01:27:56;;;;;;;16.90;9.68;;;;;;;;;;4955201;29;20098;-80
2023/09/28 01:30:23;;;;;;;16.20;9.25;;;;;;;;;;4956842;28;20027;-81
2023/09/28 01:32:48;;;;;;;16.65;9.63;;;;;;;;;;4953891;29;20051;-79
2023/09/28 01:35:14;;;;;;;20.15;9.95;;;;;;;;;;4939834;29;20062;-78
2023/09/28 01:37:54;;;;;;;17.02;10.52;;;;;;;;;;4939129;29;20062;-80
2023/09/28 01:40:19;;;;;;;15.60;9.68;;;;;;;;;;4954211;28;20058;-79
2023/09/28 01:42:46;;;;;;;15.02;9.07;;;;;;;;;;4970570;28;20031;-80
2023/09/28 01:45:11;;;;;;;20.92;10.35;;;;;;;;;;4970995;28;20028;-81
2023/09/28 01:47:37;;;;;;;14.88;9.95;;;;;;;;;;4938485;29;20086;-80
2023/09/28 01:50:03;;;;;;;14.82;9.50;;;;;;;;;;4950175;28;20491;-80
2023/09/28 01:52:29;;;;;;;14.43;9.38;;;;;;;;;;4923106;29;20105;-80
2023/09/28 01:54:55;;;;;;;18.73;9.38;;;;;;;;;;4924584;29;20032;-80
2023/09/28 01:57:21;;;;;;;13.48;9.20;;;;;;;;;;4909669;29;20543;-81
2023/09/28 01:59:46;;;;;;;16.13;9.63;;;;;;;;;;4945852;29;20054;-80
2023/09/28 02:02:12;;;;;;;17.70;8.93;;;;;;;;;;4952001;29;20028;-81
2023/09/28 02:04:37;;;;;;;16.65;9.00;;;;;;;;;;4931634;29;20126;-81
2023/09/28 02:07:04;;;;;;;21.38;9.93;;;;;;;;;;4966368;29;20035;-80
2023/09/28 02:09:30;;;;;;;18.38;9.25;;;;;;;;;;4972569;28;20038;-80
2023/09/28 02:11:55;;;;;;;19.30;9.93;;;;;;;;;;4977916;29;20035;-81
2023/09/28 02:14:21;;;;;;;19.98;9.25;;;;;;;;;;4961693;29;20042;-80
2023/09/28 02:16:50;;;;;;;18.75;9.40;;;;;;;;;;4957715;28;20032;-80
2023/09/28 02:19:15;;;;;;;21.30;9.38;;;;;;;;;;4942093;29;20031;-80
2023/09/28 02:21:41;;;;;;;15.52;9.27;;;;;;;;;;4973464;28;20082;-80
2023/09/28 02:24:07;;;;;;;24.42;9.70;;;;;;;;;;4941706;29;20031;-80
2023/09/28 02:26:33;;;;;;;16.30;8.98;;;;;;;;;;4958791;28;20087;-80
2023/09/28 02:28:59;;;;;;;16.00;10.10;;;;;;;;;;4947910;29;20035;-81
2023/09/28 02:31:25;;;;;;;16.95;9.60;;;;;;;;;;4950418;29;20035;-79
2023/09/28 02:33:52;;;;;;;12.30;9.15;;;;;;;;;;4976081;29;20042;-79
2023/09/28 02:36:17;;;;;;;16.50;9.57;;;;;;;;;;4977485;29;20075;-79
2023/09/28 02:38:43;;;;;;;13.80;9.50;;;;;;;;;;4971674;29;20031;-81
2023/09/28 02:41:15;;;;;;;18.08;10.10;;;;;;;;;;4961514;29;20521;-79
2023/09/28 02:43:41;;;;;;;17.65;9.85;;;;;;;;;;4953495;29;20023;-80
2023/09/28 02:46:06;;;;;;;16.38;9.32;;;;;;;;;;4959113;28;20030;-79
2023/09/28 02:48:32;;;;;;;16.15;9.07;;;;;;;;;;4958608;29;20079;-80
2023/09/28 02:50:57;;;;;;;15.68;9.10;;;;;;;;;;4956693;28;20038;-80
2023/09/28 02:53:23;;;;;;;14.15;8.73;;;;;;;;;;4958467;28;20475;-80
2023/09/28 02:55:49;;;;;;;13.50;9.13;;;;;;;;;;4957575;29;20471;-79
2023/09/28 02:58:14;;;;;;;17.80;8.98;;;;;;;;;;4941517;29;20082;-80
2023/09/28 03:00:40;;;;;;;16.95;9.35;;;;;;;;;;4960073;29;20043;-80
2023/09/28 03:03:09;;;;;;;17.40;9.50;;;;;;;;;;4941428;29;20035;-80
2023/09/28 03:05:38;;;;;;;12.70;8.75;;;;;;;;;;4922910;29;20426;-80
2023/09/28 03:08:04;;;;;;;;;;;;;;;;;;4939585;29;20455;-83
2023/09/28 03:10:31;;;;;;;16.00;9.40;;;;;;;;;;4956473;29;20355;-79
2023/09/28 03:12:57;;;;;;;13.88;9.40;;;;;;;;;;4940614;29;20036;-79
2023/09/28 03:15:22;;;;;;;17.88;10.20;;;;;;;;;;4953491;29;20059;-80
2023/09/28 03:17:48;;;;;;;13.50;8.63;;;;;;;;;;4964937;29;20104;-80
2023/09/28 03:20:17;;;;;;;15.30;9.15;;;;;;;;;;4949914;29;20039;-79
2023/09/28 03:22:46;;;;;;;16.53;10.27;;;;;;;;;;4922190;29;20032;-79
2023/09/28 03:25:16;;;;;;;15.45;9.63;;;;;;;;;;4923138;29;20408;-80
2023/09/28 03:27:45;;;;;;;18.50;10.00;;;;;;;;;;4924330;29;20036;-81
2023/09/28 03:30:11;;;;;;;16.20;9.57;;;;;;;;;;4943764;29;20055;-80
2023/09/28 03:32:38;;;;;;;14.63;9.65;;;;;;;;;;4945347;29;20042;-80
2023/09/28 03:35:10;;;;;;;17.73;10.38;;;;;;;;;;4955175;28;20507;-80
2023/09/28 03:37:36;;;;;;;18.23;9.93;;;;;;;;;;4945582;29;20032;-81
2023/09/28 03:40:09;;;;;;;19.40;10.95;;;;;;;;;;4956406;29;20082;-79
2023/09/28 03:42:35;;;;;;;17.88;10.18;;;;;;;;;;4944188;29;20460;-79
2023/09/28 03:45:01;;;;;;;16.95;9.90;;;;;;;;;;4974890;28;20023;-79
2023/09/28 03:47:26;;;;;;;16.23;9.48;;;;;;;;;;4963187;29;20042;-79
2023/09/28 03:49:53;;;;;;;18.50;10.45;;;;;;;;;;4941366;29;20043;-79
2023/09/28 03:52:21;;;;;;;15.93;10.68;;;;;;;;;;4958781;28;20035;-80
2023/09/28 03:54:47;;;;;;;20.95;10.15;;;;;;;;;;4957622;28;20027;-80
2023/09/28 03:57:12;;;;;;;16.50;9.90;;;;;;;;;;4956967;29;20042;-80
2023/09/28 03:59:38;;;;;;;18.67;9.65;;;;;;;;;;4956620;29;20035;-79
2023/09/28 04:02:04;;;;;;;15.98;9.75;;;;;;;;;;4957476;28;20121;-81
2023/09/28 04:04:30;;;;;;;14.85;10.35;;;;;;;;;;4952219;29;20114;-80
2023/09/28 04:06:56;;;;;;;15.45;9.85;;;;;;;;;;4953935;29;20059;-79
2023/09/28 04:09:21;;;;;;;19.35;10.85;;;;;;;;;;4953994;29;20038;-80
2023/09/28 04:11:47;;;;;;;17.17;10.57;;;;;;;;;;4953406;29;20043;-78
2023/09/28 04:14:15;;;;;;;18.33;10.65;;;;;;;;;;4951476;28;20031;-79
2023/09/28 04:16:41;;;;;;;21.33;10.73;;;;;;;;;;4938510;29;20404;-79
2023/09/28 04:19:07;;;;;;;16.60;10.20;;;;;;;;;;4952128;29;20106;-80
2023/09/28 04:21:33;;;;;;;15.82;10.90;;;;;;;;;;4940887;29;20028;-80
2023/09/28 04:23:59;;;;;;;20.23;10.20;;;;;;;;;;4951224;28;20031;-78
2023/09/28 04:26:24;;;;;;;21.55;10.73;;;;;;;;;;4956030;28;20369;-79
2023/09/28 04:28:51;;;;;;;19.35;10.68;;;;;;;;;;4940195;29;20506;-79
2023/09/28 04:31:16;;;;;;;20.17;11.00;;;;;;;;;;4924968;29;20035;-79
2023/09/28 04:33:42;;;;;;;18.55;10.48;;;;;;;;;;4957968;29;20114;-79
2023/09/28 04:36:07;;;;;;;21.38;11.52;;;;;;;;;;4960885;28;20035;-78
2023/09/28 04:38:33;;;;;;;17.38;10.05;;;;;;;;;;4951975;28;20039;-79
2023/09/28 04:41:01;;;;;;;14.55;10.65;;;;;;;;;;4939597;29;20036;-80
2023/09/28 04:43:27;;;;;;;21.70;11.07;;;;;;;;;;4954493;29;20035;-80
2023/09/28 04:45:52;;;;;;;19.85;10.38;;;;;;;;;;4975736;28;20034;-80
2023/09/28 04:48:18;;;;;;;21.30;11.43;;;;;;;;;;4972090;28;20055;-79
2023/09/28 04:50:44;;;;;;;17.52;11.43;;;;;;;;;;4974932;28;20019;-80
2023/09/28 04:53:09;;;;;;;16.02;10.60;;;;;;;;;;4942259;29;20129;-80
2023/09/28 04:55:35;;;;;;;17.60;10.50;;;;;;;;;;4940820;29;20464;-80
2023/09/28 04:58:00;;;;;;;18.02;11.52;;;;;;;;;;4958034;29;20031;-80
2023/09/28 05:00:27;;;;;;;18.92;10.98;;;;;;;;;;4958817;28;20031;-79
2023/09/28 05:02:52;;;;;;;19.90;10.90;;;;;;;;;;4966333;29;20039;-79
2023/09/28 05:05:18;;;;;;;20.15;11.93;;;;;;;;;;4963115;28;20063;-79
2023/09/28 05:07:44;;;;;;;19.23;11.20;;;;;;;;;;4971980;29;20035;-79
2023/09/28 05:10:10;;;;;;;20.10;12.15;;;;;;;;;;4977550;28;20054;-79
2023/09/28 05:12:36;;;;;;;19.15;11.50;;;;;;;;;;4975579;28;20043;-80
2023/09/28 05:15:02;;;;;;;18.75;11.55;;;;;;;;;;4974123;28;20066;-80
2023/09/28 05:17:29;;;;;;;20.58;11.48;;;;;;;;;;4959494;29;20035;-79
2023/09/28 05:19:57;;;;;;;18.33;11.75;;;;;;;;;;4960507;28;20031;-80
2023/09/28 05:22:23;;;;;;;19.87;11.50;;;;;;;;;;4944403;29;20067;-79
2023/09/28 05:24:48;;;;;;;19.15;11.75;;;;;;;;;;4958234;28;20427;-80
2023/09/28 05:27:14;;;;;;;15.95;11.05;;;;;;;;;;4946636;29;20047;-81
2023/09/28 05:29:39;;;;;;;19.92;12.32;;;;;;;;;;4946876;29;20034;-80
2023/09/28 05:32:06;;;;;;;19.70;12.63;;;;;;;;;;4944873;29;20047;-79
2023/09/28 05:34:32;;;;;;;20.08;11.77;;;;;;;;;;4946936;29;20039;-81
2023/09/28 05:36:58;;;;;;;21.65;11.77;;;;;;;;;;4964949;29;20035;-80
2023/09/28 05:39:24;;;;;;;19.90;11.43;;;;;;;;;;4967061;28;20035;-81
2023/09/28 05:41:50;;;;;;;22.67;13.13;;;;;;;;;;4976850;28;20019;-79
2023/09/28 05:44:16;;;;;;;19.95;12.30;;;;;;;;;;4971108;28;20059;-80
2023/09/28 05:46:41;;;;;;;20.15;11.02;;;;;;;;;;4964884;28;20039;-81
2023/09/28 05:49:08;;;;;;;17.55;10.93;;;;;;;;;;4947773;29;20450;-80
2023/09/28 05:51:34;;;;;;;19.50;11.75;;;;;;;;;;4972346;28;20044;-79
2023/09/28 05:53:59;;;;;;;21.02;11.13;;;;;;;;;;4976407;28;20049;-79
2023/09/28 05:56:25;;;;;;;19.15;11.30;;;;;;;;;;4957651;29;20035;-80
2023/09/28 05:58:50;;;;;;;24.15;10.98;;;;;;;;;;4948831;29;20032;-80
2023/09/28 06:01:21;;;;;;;22.55;11.73;;;;;;;;;;4945763;29;20108;-80
2023/09/28 06:03:46;;;;;;;17.88;11.57;;;;;;;;;;4945585;29;20035;-79
2023/09/28 06:06:16;;;;;;;18.33;11.20;;;;;;;;;;4960729;29;20101;-80
2023/09/28 06:08:42;;;;;;;21.10;11.43;;;;;;;;;;4960519;28;20023;-80
2023/09/28 06:11:15;;;;;;;19.80;12.60;;;;;;;;;;4945822;29;20685;-81
2023/09/28 06:13:41;;;;;;;16.95;10.35;;;;;;;;;;4948978;29;20058;-80
2023/09/28 06:16:08;;;;;;;20.35;12.13;;;;;;;;;;4976321;28;20106;-80
2023/09/28 06:18:35;;;;;;;17.23;11.07;;;;;;;;;;4943156;29;20082;-81
2023/09/28 06:21:00;;;;;;;20.10;11.60;;;;;;;;;;4944414;29;20035;-79
2023/09/28 06:23:30;;;;;;;19.75;11.80;;;;;;;;;;4944288;29;20124;-81
2023/09/28 06:25:56;;;;;;;24.23;11.35;;;;;;;;;;4943348;29;20118;-79
2023/09/28 06:28:24;;;;;;;18.80;11.10;;;;;;;;;;4960481;28;20047;-80
2023/09/28 06:30:53;;;;;;;19.52;11.82;;;;;;;;;;4960945;29;20039;-79
2023/09/28 06:33:27;;;;;;;18.75;11.48;;;;;;;;;;4975664;28;20106;-80
2023/09/28 06:35:55;;;;;;;24.30;11.60;;;;;;;;;;4941816;29;20462;-80
2023/09/28 06:38:21;;;;;;;16.73;11.45;;;;;;;;;;4958326;28;20031;-79
2023/09/28 06:40:48;;;;;;;21.20;11.75;;;;;;;;;;4932539;29;20090;-79
2023/09/28 06:43:16;;;;;;;19.85;11.52;;;;;;;;;;4960282;29;20050;-79
2023/09/28 06:45:45;;;;;;;17.80;11.60;;;;;;;;;;4927166;29;20090;-79
2023/09/28 06:48:10;;;;;;;;;;;;;;;;;;4942984;29;20475;-80
2023/09/28 06:50:39;;;;;;;19.48;12.05;;;;;;;;;;4959161;28;19917;-79
2023/09/28 06:53:05;;;;;;;20.43;10.70;;;;;;;;;;4959844;28;20035;-79
2023/09/28 06:55:33;;;;;;;19.80;12.27;;;;;;;;;;4948308;29;20015;-78
2023/09/28 06:58:00;;;;;;;18.33;11.73;;;;;;;;;;4966484;28;20107;-78
2023/09/28 07:00:29;;;;;;;25.40;12.35;;;;;;;;;;4947572;29;20082;-79
2023/09/28 07:02:55;;;;;;;;;;;;;;;;;;4979703;28;20043;-80
2023/09/28 07:05:24;;;;;;;19.15;10.95;;;;;;;;;;4939420;29;20362;-79
2023/09/28 07:07:50;;;;;;;18.77;11.68;;;;;;;;;;4951029;28;20099;-80
2023/09/28 07:10:16;;;;;;;23.45;11.85;;;;;;;;;;4952238;29;20043;-80
2023/09/28 07:12:41;;;;;;;15.77;11.20;;;;;;;;;;4953038;29;20062;-83
2023/09/28 07:15:08;;;;;;;27.48;16.88;;;;;;;;;;4975139;29;20042;-80
2023/09/28 07:17:34;;;;;;;20.38;13.02;;;;;;;;;;4975615;29;20071;-79
2023/09/28 07:20:00;;;;;;;29.60;13.02;;;;;;;;;;4975249;28;20133;-82
2023/09/28 07:22:27;;;;;;;30.85;14.85;;;;;;;;;;4960858;29;20091;-80
2023/09/28 07:24:54;;;;;;;27.52;14.77;;;;;;;;;;4956872;29;20063;-80
2023/09/28 07:27:20;;;;;;;18.23;11.73;;;;;;;;;;4963650;28;20042;-80
2023/09/28 07:29:46;;;;;;;18.67;11.82;;;;;;;;;;4960332;28;20035;-78
2023/09/28 07:32:11;;;;;;;17.08;10.70;;;;;;;;;;4959355;28;20027;-78
2023/09/28 07:34:37;;;;;;;17.83;10.63;;;;;;;;;;4957415;29;20454;-79
2023/09/28 07:37:04;;;;;;;19.98;11.45;;;;;;;;;;4969146;28;20027;-78
2023/09/28 07:39:30;;;;;;;23.40;11.73;;;;;;;;;;4927355;29;20097;-80
2023/09/28 07:42:04;;;;;;;16.30;11.20;;;;;;;;;;4965118;29;20048;-80
2023/09/28 07:44:30;;;;;;;17.70;10.90;;;;;;;;;;4939235;29;20035;-79
2023/09/28 07:46:55;;;;;;;20.63;11.45;;;;;;;;;;4956356;29;20043;-80
2023/09/28 07:49:21;;;;;;;17.02;10.80;;;;;;;;;;4956567;29;20043;-80
2023/09/28 07:51:46;;;;;;;21.00;10.27;;;;;;;;;;4939671;29;20058;-81
2023/09/28 07:54:12;;;;;;;19.80;10.20;;;;;;;;;;4941829;29;20044;-81
2023/09/28 07:56:37;;;;;;;17.75;10.13;;;;;;;;;;4921764;29;20047;-81
2023/09/28 07:59:03;;;;;;;16.85;10.20;;;;;;;;;;4951518;29;20043;-81
2023/09/28 08:01:28;;;;;;;17.60;9.80;;;;;;;;;;4938763;29;20023;-80
2023/09/28 08:03:55;;;;;;;17.48;10.60;;;;;;;;;;4938774;29;20067;-81
2023/09/28 08:06:20;;;;;;;18.92;9.75;;;;;;;;;;4938370;29;20067;-79
2023/09/28 08:08:46;;;;;;;17.77;10.20;;;;;;;;;;4954086;28;20031;-81
2023/09/28 08:11:12;;;;;;;15.55;9.88;;;;;;;;;;4922562;29;20031;-80
2023/09/28 08:13:38;;;;;;;13.60;9.80;;;;;;;;;;4921372;29;20054;-79
2023/09/28 08:16:04;;;;;;;18.88;9.25;;;;;;;;;;4948607;28;20494;-82
2023/09/28 08:18:30;;;;;;;15.48;9.60;;;;;;;;;;4959412;29;20039;-81
2023/09/28 08:20:55;;;;;;;19.35;9.52;;;;;;;;;;4954155;29;20058;-81
2023/09/28 08:23:21;;;;;;;14.23;8.32;;;;;;;;;;4959525;28;20130;-81
2023/09/28 08:25:46;;;;;;;17.95;8.90;;;;;;;;;;4960282;29;20043;-80
2023/09/28 08:28:15;;;;;;;17.73;9.38;;;;;;;;;;4978374;28;20461;-81
2023/09/28 08:30:41;;;;;;;13.95;8.57;;;;;;;;;;4962216;28;20039;-81
2023/09/28 08:33:12;;;;;;;14.57;8.60;;;;;;;;;;4926518;29;20040;-82
2023/09/28 08:35:39;;;;;;;17.40;8.55;;;;;;;;;;4956886;28;20043;-80
2023/09/28 08:38:04;;;;;;;20.73;8.38;;;;;;;;;;4957540;29;20114;-81
2023/09/28 08:40:33;;;;;;;16.67;8.20;;;;;;;;;;4953940;28;20063;-81
2023/09/28 08:42:58;;;;;;;;;;;;;;;;;;4939806;29;20119;-82
2023/09/28 08:45:26;;;;;;;15.25;8.07;;;;;;;;;;4938363;29;19943;-79
2023/09/28 08:47:53;;;;;;;12.63;6.90;;;;;;;;;;4922980;29;20036;-82
2023/09/28 08:50:27;;;;;;;14.43;7.85;;;;;;;;;;4938199;29;20460;-80
2023/09/28 08:52:54;;;;;;;14.68;7.55;;;;;;;;;;4938706;29;20038;-81
2023/09/28 08:55:21;;;;;;;16.75;7.60;;;;;;;;;;4954687;29;20067;-81
2023/09/28 08:57:46;;;;;;;10.82;7.65;;;;;;;;;;4932431;28;20098;-81
2023/09/28 09:00:14;;;;;;;11.88;7.45;;;;;;;;;;4957754;28;20039;-80
2023/09/28 09:02:43;;;;;;;12.20;6.88;;;;;;;;;;4957077;29;20035;-80
2023/09/28 09:05:12;;;;;;;15.15;7.95;;;;;;;;;;4956365;29;20032;-82
2023/09/28 09:07:42;;;;;;;14.68;7.95;;;;;;;;;;4972324;28;20035;-81
2023/09/28 09:10:11;;;;;;;13.07;6.45;;;;;;;;;;4957949;28;20030;-81
2023/09/28 09:12:37;;;;;;;14.20;7.45;;;;;;;;;;4941370;28;20043;-82
2023/09/28 09:15:04;;;;;;;12.40;7.57;;;;;;;;;;4938567;29;20410;-81
2023/09/28 09:17:33;;;;;;;13.50;6.95;;;;;;;;;;4945984;29;20110;-81
2023/09/28 09:20:00;;;;;;;15.88;7.07;;;;;;;;;;4921692;29;20036;-81
2023/09/28 09:22:27;;;;;;;17.30;7.28;;;;;;;;;;4955341;29;20038;-82
2023/09/28 09:24:56;;;;;;;11.52;7.28;;;;;;;;;;4955873;29;20062;-84
2023/09/28 09:27:26;;;;;;;13.20;7.45;;;;;;;;;;4956396;29;20069;-81
2023/09/28 09:29:52;;;;;;;10.43;6.50;;;;;;;;;;4941277;29;20039;-82
2023/09/28 09:32:22;;;;;;;15.20;6.47;;;;;;;;;;4941460;29;20039;-82
2023/09/28 09:34:47;;;;;;;11.50;7.22;;;;;;;;;;4927570;28;20043;-81
2023/09/28 09:37:14;;;;;;;8.90;5.07;;;;;;;;;;4941271;29;20491;-82
2023/09/28 09:39:39;;;;;;;16.30;4.53;;;;;;;;;;4956887;28;20027;-81
2023/09/28 09:42:05;;;;;;;7.40;4.45;;;;;;;;;;4974301;28;20038;-81
2023/09/28 09:44:30;;;;;;;12.20;4.20;;;;;;;;;;4941198;29;20053;-82
2023/09/28 09:46:57;;;;;;;7.00;3.72;;;;;;;;;;4959594;28;20102;-82
2023/09/28 09:49:26;;;;;;;7.85;4.38;;;;;;;;;;4959614;28;20122;-81
2023/09/28 09:51:52;;;;;;;10.00;4.00;;;;;;;;;;4966097;28;20031;-82
2023/09/28 09:54:19;;;;;;;5.25;3.45;;;;;;;;;;4971461;28;20046;-81
2023/09/28 09:56:46;;;;;;;6.65;3.72;;;;;;;;;;4966693;28;20058;-81
2023/09/28 09:59:15;;;;;;;9.85;3.20;;;;;;;;;;4969353;28;20134;-80
2023/09/28 10:01:42;;;;;;;6.78;3.33;;;;;;;;;;4958882;29;20031;-82
2023/09/28 10:04:12;;;;;;;8.73;2.83;;;;;;;;;;4989667;28;20107;-82
2023/09/28 10:06:38;;;;;;;7.25;3.70;;;;;;;;;;4976527;28;20257;-81
2023/09/28 10:09:04;;;;;;;8.95;3.60;;;;;;;;;;4975330;28;20015;-82
2023/09/28 10:11:31;;;;;;;7.03;3.70;;;;;;;;;;4951236;29;20105;-82
2023/09/28 10:13:57;;;;;;;6.53;3.10;;;;;;;;;;4962520;28;20479;-81
2023/09/28 10:16:23;;;;;;;6.85;3.22;;;;;;;;;;4960559;29;20790;-81
2023/09/28 10:18:51;;;;;;;6.40;3.30;;;;;;;;;;4961679;28;20031;-82
2023/09/28 10:21:17;;;;;;;5.93;3.27;;;;;;;;;;4956483;28;20031;-81
2023/09/28 10:23:42;;;;;;;10.73;2.92;;;;;;;;;;4960711;28;20578;-83
2023/09/28 10:26:11;;;;;;;5.05;2.90;;;;;;;;;;4961341;28;20398;-81
2023/09/28 10:28:57;;;;;;;11.75;3.78;;;;;;;;;;4960148;28;20379;-81
2023/09/28 10:31:22;;;;;;;5.80;3.08;;;;;;;;;;4961306;29;20043;-81
2023/09/28 10:34:02;;;;;;;8.55;3.47;;;;;;;;;;4959613;29;20564;-81
2023/09/28 10:36:28;;;;;;;8.25;3.40;;;;;;;;;;4944303;29;20121;-81
2023/09/28 10:39:06;;;;;;;7.20;3.13;;;;;;;;;;4959112;29;20055;-82
2023/09/28 10:41:32;;;;;;;6.78;3.30;;;;;;;;;;4943059;29;20043;-82
2023/09/28 10:43:58;;;;;;;6.93;3.33;;;;;;;;;;4928526;29;20145;-80
2023/09/28 10:46:23;;;;;;;5.97;3.03;;;;;;;;;;4959891;28;20031;-81
2023/09/28 10:48:51;;;;;;;6.70;3.33;;;;;;;;;;4961590;29;20099;-80
2023/09/28 10:51:18;;;;;;;8.00;3.28;;;;;;;;;;4949508;29;20039;-81
2023/09/28 10:53:44;;;;;;;10.77;3.65;;;;;;;;;;4936469;29;20034;-81
2023/09/28 10:56:12;;;;;;;7.20;3.10;;;;;;;;;;4960978;28;20551;-82
2023/09/28 10:58:40;;;;;;;7.78;3.40;;;;;;;;;;4957706;29;20090;-83
2023/09/28 11:01:06;;;;;;;9.68;3.58;;;;;;;;;;4959609;28;20479;-82
2023/09/28 11:03:35;;;;;;;6.35;2.88;;;;;;;;;;4959959;28;20059;-81
2023/09/28 11:06:02;;;;;;;5.15;2.83;;;;;;;;;;4958592;28;20545;-82
2023/09/28 11:08:28;;;;;;;3.80;2.42;;;;;;;;;;4959224;28;20037;-82
2023/09/28 11:10:55;;;;;;;5.93;2.60;;;;;;;;;;4958063;28;20039;-80
2023/09/28 11:13:21;;;;;;;6.90;3.15;;;;;;;;;;4960076;29;20371;-81
2023/09/28 11:15:49;;;;;;;4.45;2.53;;;;;;;;;;4940857;29;20116;-82
2023/09/28 11:18:15;;;;;;;6.50;2.80;;;;;;;;;;4942029;29;20058;-82
2023/09/28 11:20:42;;;;;;;6.00;2.90;;;;;;;;;;4942366;29;20054;-83
2023/09/28 11:23:11;;;;;;;6.32;2.78;;;;;;;;;;4959988;28;20431;-81
2023/09/28 11:25:40;;;;;;;10.95;3.53;;;;;;;;;;4959254;28;20038;-80
2023/09/28 11:28:08;;;;;;;5.30;2.92;;;;;;;;;;4959180;28;20063;-82
2023/09/28 11:30:36;;;;;;;4.55;2.35;;;;;;;;;;4960135;29;20117;-81
2023/09/28 11:33:02;;;;;;;;;;;;;;;;;;4942508;29;20050;-81
2023/09/28 11:35:29;;;;;;;7.88;3.45;;;;;;;;;;4950576;29;19911;-81
2023/09/28 11:37:58;;;;;;;5.55;2.85;;;;;;;;;;4954736;29;20126;-82
2023/09/28 11:40:24;;;;;;;5.95;3.05;;;;;;;;;;4993098;28;20035;-82
2023/09/28 11:42:51;;;;;;;8.93;2.70;;;;;;;;;;4978451;28;20050;-80
2023/09/28 11:45:20;;;;;;;6.23;2.77;;;;;;;;;;4962385;28;20082;-82
2023/09/28 11:47:57;;;;;;;4.80;2.70;;;;;;;;;;4964375;29;20030;-81
2023/09/28 11:50:30;;;;;;;7.28;2.60;;;;;;;;;;4971896;29;20023;-82
2023/09/28 11:52:58;;;;;;;4.72;2.90;;;;;;;;;;4966846;28;20457;-82
2023/09/28 11:55:24;;;;;;;6.53;3.10;;;;;;;;;;4963845;28;20019;-83
2023/09/28 11:57:57;;;;;;;5.38;2.47;;;;;;;;;;4959875;29;20039;-81
2023/09/28 12:00:26;;;;;;;8.60;2.85;;;;;;;;;;4973788;28;20031;-81
2023/09/28 12:02:52;;;;;;;5.43;2.63;;;;;;;;;;4959321;28;20403;-82
2023/09/28 12:05:21;;;;;;;5.60;2.70;;;;;;;;;;4957461;28;20090;-83
2023/09/28 12:07:47;;;;;;;4.70;2.38;;;;;;;;;;4957473;28;20050;-82
2023/09/28 12:10:14;;;;;;;6.25;2.50;;;;;;;;;;4958149;28;20045;-82
2023/09/28 12:12:39;;;;;;;6.43;2.20;;;;;;;;;;4961182;28;20031;-83
2023/09/28 12:15:07;;;;;;;7.80;2.83;;;;;;;;;;4960402;29;20097;-82
2023/09/28 12:17:33;;;;;;;5.38;2.78;;;;;;;;;;4944475;29;20058;-83
2023/09/28 12:20:00;;;;;;;5.63;2.70;;;;;;;;;;4959332;28;20098;-81
2023/09/28 12:22:26;;;;;;;4.10;2.30;;;;;;;;;;4948127;29;20093;-83
2023/09/28 12:24:55;;;;;;;4.05;2.10;;;;;;;;;;4966605;28;20499;-82
2023/09/28 12:27:24;;;;;;;7.85;2.80;;;;;;;;;;4966884;29;20055;-81
2023/09/28 12:29:50;;;;;;;7.07;2.47;;;;;;;;;;4950923;29;20039;-81
2023/09/28 12:32:18;;;;;;;5.13;2.17;;;;;;;;;;4949453;29;20039;-81
2023/09/28 12:34:44;;;;;;;5.28;2.22;;;;;;;;;;4946513;29;20040;-81
2023/09/28 12:37:16;;;;;;;7.07;2.25;;;;;;;;;;4949693;29;20054;-82
2023/09/28 12:39:44;;;;;;;4.90;2.05;;;;;;;;;;4942971;29;20035;-82
2023/09/28 12:42:13;;;;;;;5.47;2.35;;;;;;;;;;4943504;29;20047;-81
2023/09/28 12:44:42;;;;;;;8.70;2.70;;;;;;;;;;4942405;29;20104;-82
2023/09/28 12:47:11;;;;;;;4.57;1.73;;;;;;;;;;4939039;29;20031;-83
2023/09/28 12:49:40;;;;;;;5.18;2.15;;;;;;;;;;4924274;29;20051;-83
2023/09/28 12:52:07;;;;;;;3.90;2.17;;;;;;;;;;4937683;29;20062;-82
2023/09/28 12:54:37;;;;;;;7.13;2.50;;;;;;;;;;4923205;29;20274;-82
2023/09/28 12:57:07;;;;;;;3.60;1.97;;;;;;;;;;4938454;29;20032;-82
2023/09/28 12:59:32;;;;;;;4.85;2.05;;;;;;;;;;4938683;29;20066;-83
2023/09/28 13:01:58;;;;;;;7.45;2.50;;;;;;;;;;4958888;28;20487;-81
2023/09/28 13:04:24;;;;;;;7.10;2.50;;;;;;;;;;4958650;28;20035;-82
2023/09/28 13:06:51;;;;;;;4.45;2.63;;;;;;;;;;4940852;29;20031;-82
2023/09/28 13:09:17;;;;;;;4.97;2.53;;;;;;;;;;4956746;29;20034;-82
2023/09/28 13:11:50;;;;;;;5.55;2.30;;;;;;;;;;4957330;28;20035;-82
2023/09/28 13:14:25;;;;;;;7.35;2.17;;;;;;;;;;4956232;28;20065;-82
2023/09/28 13:16:55;;;;;;;10.82;2.85;;;;;;;;;;4964557;28;20031;-82
2023/09/28 13:19:27;;;;;;;5.63;2.17;;;;;;;;;;4955416;28;20510;-82
2023/09/28 13:21:58;;;;;;;9.65;2.35;;;;;;;;;;4939680;29;20065;-82
2023/09/28 13:24:24;;;;;;;3.85;2.17;;;;;;;;;;4937108;29;20519;-82
2023/09/28 13:26:50;;;;;;;5.13;2.17;;;;;;;;;;4939272;29;20044;-82
2023/09/28 13:29:23;;;;;;;6.88;3.00;;;;;;;;;;4938192;29;20027;-83
2023/09/28 13:31:50;;;;;;;4.22;2.03;;;;;;;;;;4939219;29;20028;-82
2023/09/28 13:34:17;;;;;;;5.30;2.30;;;;;;;;;;4941419;28;20039;-81
2023/09/28 13:36:44;;;;;;;5.57;2.65;;;;;;;;;;4946818;29;20392;-81
2023/09/28 13:39:30;;;;;;;4.45;2.40;;;;;;;;;;4960151;29;20047;-83
2023/09/28 13:42:05;;;;;;;5.43;2.40;;;;;;;;;;4941221;29;20071;-81
2023/09/28 13:44:31;;;;;;;7.00;2.70;;;;;;;;;;4923314;29;20035;-81
2023/09/28 13:46:57;;;;;;;8.18;2.70;;;;;;;;;;4940202;29;20186;-81
2023/09/28 13:49:25;;;;;;;5.75;2.30;;;;;;;;;;4956999;28;20038;-82
2023/09/28 13:51:52;;;;;;;5.25;2.17;;;;;;;;;;4954645;28;20027;-81
2023/09/28 13:54:18;;;;;;;5.90;2.60;;;;;;;;;;4961410;28;20062;-81
2023/09/28 13:56:46;;;;;;;4.65;2.67;;;;;;;;;;4926653;29;20065;-82
2023/09/28 13:59:17;;;;;;;6.70;2.72;;;;;;;;;;4948142;29;20066;-80
2023/09/28 14:01:43;;;;;;;4.47;2.13;;;;;;;;;;4941472;29;20054;-82
2023/09/28 14:04:11;;;;;;;8.03;4.63;;;;;;;;;;4956416;28;20459;-82
2023/09/28 14:06:37;;;;;;;4.18;2.13;;;;;;;;;;4942147;29;20044;-81
2023/09/28 14:09:04;;;;;;;4.05;2.20;;;;;;;;;;4926146;29;20042;-82
2023/09/28 14:11:32;;;;;;;4.93;2.28;;;;;;;;;;4944984;29;20058;-83
2023/09/28 14:13:59;;;;;;;8.02;2.22;;;;;;;;;;4926369;29;20097;-82
2023/09/28 14:16:24;;;;;;;4.53;2.13;;;;;;;;;;4945245;29;20031;-82
2023/09/28 14:18:53;;;;;;;5.15;2.40;;;;;;;;;;4942532;29;20040;-83
2023/09/28 14:21:18;;;;;;;5.25;2.55;;;;;;;;;;4942891;29;20062;-82
2023/09/28 14:23:47;;;;;;;5.65;2.08;;;;;;;;;;4957566;28;20118;-82
2023/09/28 14:26:14;;;;;;;4.20;2.17;;;;;;;;;;4943835;29;20047;-83
2023/09/28 14:28:39;;;;;;;5.22;2.08;;;;;;;;;;4961072;28;20031;-81
2023/09/28 14:31:05;;;;;;;7.65;2.42;;;;;;;;;;4966155;28;20043;-82